Palisade, CO (81526)

7:08 PM MDT on September 21, 2014 (GMT -0600)
RAWS PINE RIDGE CO US | Change Station
CLOSE
Current Station
Personal Weather Station
Location: Palisade, CO
Elevation: 6709 ft
Nearby Weather Stations

Elev 6709 ft 39.24 °N, 108.38 °W | Updated 34 minutes ago

Mostly Cloudy
Mostly Cloudy
60 °F
Feels Like 60 °F
N
11
Wind Variable Wind from WNW
Gusts 26.0 mph

Today
High -- | Low -- °F
--% Chance of Precip.
Yesterday
High -- | Low -- °F
Precip. -- in
7:00 AM 7:12 PM
Waning Crescent, 5% visible
Pressure 30.06 in
Visibility 5.0 miles
Clouds Mostly Cloudy 8000 ft
Overcast 10000 ft
Dew Point 50 °F
Humidity 70%
Rainfall 0.16 in
Snow Depth 0 in , 0 in , 0 in
UV 0 out of 12
Pollen 5.10 out of 12
Air Quality Not available.
Flu Activity Not available.
METAR KGJT 220053Z 28007KT 5SM RA BR BKN080 OVC100 16/14 A3020 RMK AO2 LTG DSNT N AND SE RAB33 SLP177 P0006 T01560144

More Conditions Fewer Conditions

Pressure 30.06 in
Visibility 5.0 miles
Clouds Mostly Cloudy 8000 ft
Overcast 10000 ft
Dew Point 50 °F
Humidity 70%
Rainfall 0.16 in
Snow Depth 0 in , 0 in , 0 in
UV 0 out of 12
Pollen 5.10 out of 12
Air Quality Not available.
Flu Activity Not available.
METAR KGJT 220053Z 28007KT 5SM RA BR BKN080 OVC100 16/14 A3020 RMK AO2 LTG DSNT N AND SE RAB33 SLP177 P0006 T01560144

More Conditions Fewer Conditions

10-Day Weather Forecast

Almanac

Astronomy

Sep. 21, 2014 Rise Set
Actual Time 7:00 AM MDT 7:12 PM MDT
Civil Twilight 6:33 AM MDT 7:38 PM MDT
Nautical Twilight 6:02 AM MDT 8:09 PM MDT
Astronomical Twilight 5:30 AM MDT 8:41 PM MDT
Moon 4:37 AM MDT (9/21) 5:49 PM MDT (9/21)
Length of Visible Light 13h 05m
Length of Day
12h 11m
Tomorrow will be 2m 31s shorter.
Waning Crescent, 5% of the Moon is Illuminated
Today
Waning Crescent
Sep 24
New
Oct 1
First Quarter
Oct 8
Full
Oct 15
Last Quarter

Today's Extremes

State Highs State Lows

Community

WunderPhotos

Upload Photos

1,755,324 photos uploaded!

WunderBlogs® & News

Nearby

Snow Depth

Station Depth Elevation
Lone Cone 0 in 9600 ft
Wolf Creek Summit 0 in 11000 ft
Joe Wright 0 in 10120 ft
Columbine 0 in 9160 ft
Kiln 0 in 9600 ft

Earthquake Activity

City Distance Mag. Time & Date
No recent earthquake activity has been reported nearby.
Minimum magnitude displayed is 2.5.

Coastal Water Temperatures

Place Temperature
No Stations Reporting

Nearby Weather Stations